createdAt,value
2018-09-14T00:02:06.359Z,13.33
2018-09-14T00:05:30.868Z,13.26
2018-09-14T00:08:55.272Z,13.26
2018-09-14T00:12:19.665Z,13.25
2018-09-14T00:15:44.078Z,13.26
2018-09-14T00:19:08.472Z,13.30
2018-09-14T00:22:32.861Z,13.20
2018-09-14T00:25:57.259Z,13.15
2018-09-14T00:29:21.737Z,13.03
2018-09-14T00:32:46.168Z,13.02
2018-09-14T00:36:10.577Z,13.00
2018-09-14T00:39:35.010Z,12.97
2018-09-14T00:42:59.444Z,13.01
2018-09-14T00:46:23.897Z,12.96
2018-09-14T00:49:48.299Z,12.94
2018-09-14T00:53:12.725Z,12.87
2018-09-14T00:56:37.166Z,12.72
2018-09-14T01:00:01.574Z,12.82
2018-09-14T01:03:26.083Z,12.87
2018-09-14T01:06:50.566Z,12.79
2018-09-14T01:10:14.971Z,12.82
2018-09-14T01:13:39.395Z,12.83
2018-09-14T01:17:03.942Z,12.86
2018-09-14T01:20:28.363Z,12.71
2018-09-14T01:23:52.784Z,12.71
2018-09-14T01:27:17.228Z,12.74
2018-09-14T01:30:41.645Z,12.59
2018-09-14T01:34:06.162Z,12.58
2018-09-14T01:37:30.574Z,12.60
2018-09-14T01:40:55.022Z,12.63
2018-09-14T01:44:19.414Z,12.53
2018-09-14T01:47:43.857Z,12.46
2018-09-14T01:51:08.304Z,12.50
2018-09-14T01:54:32.717Z,12.45
2018-09-14T01:57:57.641Z,12.42
2018-09-14T02:01:22.143Z,12.37
2018-09-14T02:04:46.600Z,12.38
2018-09-14T02:08:11.011Z,12.41
2018-09-14T02:11:35.387Z,12.36
2018-09-14T02:14:59.825Z,12.39
2018-09-14T02:18:24.233Z,12.27
2018-09-14T02:21:48.651Z,12.19
2018-09-14T02:25:13.253Z,12.17
2018-09-14T02:28:37.642Z,12.16
2018-09-14T02:32:02.102Z,12.20
2018-09-14T02:35:26.514Z,12.12
2018-09-14T02:38:50.937Z,12.19
2018-09-14T02:42:15.361Z,12.19
2018-09-14T02:45:39.804Z,12.18
2018-09-14T02:49:04.210Z,12.17
2018-09-14T02:52:28.638Z,12.10
2018-09-14T02:55:53.107Z,12.10
2018-09-14T02:59:17.580Z,12.07
2018-09-14T03:02:41.981Z,11.95
2018-09-14T03:06:06.518Z,11.87
2018-09-14T03:09:30.953Z,11.86
2018-09-14T03:12:55.361Z,11.91
2018-09-14T03:16:19.756Z,11.89
2018-09-14T03:19:44.158Z,11.91
2018-09-14T03:23:08.587Z,11.88
2018-09-14T03:26:33.012Z,11.79
2018-09-14T03:29:57.439Z,11.73
2018-09-14T03:33:21.902Z,11.70
2018-09-14T03:36:46.322Z,11.69
2018-09-14T03:40:10.759Z,11.68
2018-09-14T03:43:41.513Z,11.66
2018-09-14T03:47:05.978Z,11.59
2018-09-14T03:50:30.390Z,11.63
2018-09-14T03:53:54.804Z,11.55
2018-09-14T03:57:19.462Z,11.62
2018-09-14T04:00:43.842Z,11.57
2018-09-14T04:04:08.394Z,11.52
2018-09-14T04:07:32.836Z,11.58
2018-09-14T04:10:57.282Z,11.49
2018-09-14T04:14:21.688Z,11.45
2018-09-14T04:17:46.124Z,11.53
2018-09-14T04:21:11.053Z,11.50
2018-09-14T04:24:35.529Z,11.41
2018-09-14T04:28:00.194Z,11.40
2018-09-14T04:31:24.712Z,11.41
2018-09-14T04:34:49.151Z,11.41
2018-09-14T04:38:13.566Z,11.36
2018-09-14T04:41:37.997Z,11.32
2018-09-14T04:45:03.189Z,11.47
2018-09-14T04:48:27.643Z,11.37
2018-09-14T04:51:52.032Z,11.33
2018-09-14T04:55:16.440Z,11.25
2018-09-14T04:58:40.931Z,11.25
2018-09-14T05:02:05.418Z,11.27
2018-09-14T05:05:29.837Z,11.17
2018-09-14T05:08:54.309Z,11.22
2018-09-14T05:12:18.725Z,11.14
2018-09-14T05:15:43.820Z,11.22
2018-09-14T05:19:08.284Z,11.25
2018-09-14T05:22:32.712Z,11.28
2018-09-14T05:25:57.102Z,11.30
2018-09-14T05:29:21.529Z,11.28
2018-09-14T05:32:45.989Z,11.59
2018-09-14T05:36:10.394Z,11.45
2018-09-14T05:39:34.801Z,11.44
2018-09-14T05:42:59.275Z,11.48
2018-09-14T05:46:23.766Z,11.48
2018-09-14T05:49:48.157Z,11.53
2018-09-14T05:53:12.589Z,11.46
2018-09-14T05:56:37.032Z,11.65
2018-09-14T06:00:01.528Z,11.70
2018-09-14T06:03:25.953Z,11.80
2018-09-14T06:06:50.388Z,11.89
2018-09-14T06:10:14.877Z,12.15
2018-09-14T06:13:39.511Z,12.30
2018-09-14T06:17:03.961Z,12.60
2018-09-14T06:20:29.332Z,12.80
2018-09-14T06:23:53.836Z,12.90
2018-09-14T06:27:18.337Z,13.08
2018-09-14T06:30:42.821Z,13.32
2018-09-14T06:34:07.288Z,13.20
2018-09-14T06:37:31.687Z,13.22
2018-09-14T06:40:56.133Z,13.34
2018-09-14T06:44:20.635Z,13.45
2018-09-14T06:47:45.116Z,13.59
2018-09-14T06:51:09.611Z,13.72
2018-09-14T06:54:34.088Z,13.83
2018-09-14T06:57:58.640Z,14.05
2018-09-14T07:01:23.101Z,14.10
2018-09-14T07:04:47.572Z,14.26
2018-09-14T07:08:11.967Z,14.35
2018-09-14T07:11:36.457Z,14.60
2018-09-14T07:15:00.903Z,14.65
2018-09-14T07:18:25.351Z,14.72
2018-09-14T07:21:50.813Z,14.75
2018-09-14T07:25:15.286Z,14.82
2018-09-14T07:28:39.736Z,15.02
2018-09-14T07:32:04.129Z,15.09
2018-09-14T07:35:28.612Z,15.06
2018-09-14T07:38:53.075Z,15.25
2018-09-14T07:42:17.567Z,15.34
2018-09-14T07:45:42.006Z,15.50
2018-09-14T07:49:06.515Z,15.35
2018-09-14T07:52:30.984Z,15.62
2018-09-14T07:55:55.462Z,15.63
2018-09-14T07:59:19.957Z,15.61
2018-09-14T08:02:44.492Z,15.91
2018-09-14T08:06:08.968Z,15.76
2018-09-14T08:09:33.403Z,15.96
2018-09-14T08:12:57.849Z,16.19
2018-09-14T08:16:22.290Z,16.42
2018-09-14T08:19:46.719Z,16.27
2018-09-14T08:23:11.178Z,16.60
2018-09-14T08:26:35.702Z,16.68
2018-09-14T08:30:00.292Z,16.75
2018-09-14T08:33:24.749Z,16.92
2018-09-14T08:36:49.254Z,17.15
2018-09-14T08:40:13.705Z,17.17
2018-09-14T08:43:38.134Z,17.50
2018-09-14T08:47:02.561Z,17.64
2018-09-14T08:50:26.985Z,17.70
2018-09-14T08:53:51.448Z,17.81
2018-09-14T08:57:15.866Z,17.76
2018-09-14T09:00:40.319Z,18.04
2018-09-14T09:04:04.769Z,18.25
2018-09-14T09:07:29.198Z,18.60
2018-09-14T09:10:53.640Z,18.74
2018-09-14T09:14:18.163Z,19.12
2018-09-14T09:17:49.244Z,19.22
2018-09-14T09:21:13.685Z,19.21
2018-09-14T09:24:38.090Z,19.50
2018-09-14T09:28:02.503Z,19.69
2018-09-14T09:31:26.965Z,20.04
2018-09-14T09:34:51.459Z,20.30
2018-09-14T09:38:15.962Z,20.60
2018-09-14T09:41:41.190Z,20.51
2018-09-14T09:45:05.772Z,20.81
2018-09-14T09:48:30.260Z,21.39
2018-09-14T09:51:54.812Z,21.42
2018-09-14T09:55:19.276Z,22.06
2018-09-14T09:58:43.783Z,22.78
2018-09-14T10:02:33.793Z,24.32
2018-09-14T10:06:03.322Z,25.94
2018-09-14T10:09:27.819Z,26.51
2018-09-14T10:12:52.256Z,27.28
2018-09-14T10:16:16.731Z,26.79
2018-09-14T10:19:41.221Z,27.63
2018-09-14T10:23:05.704Z,29.44
2018-09-14T10:26:30.140Z,29.65
2018-09-14T10:29:54.545Z,30.59
2018-09-14T10:33:18.999Z,29.34
2018-09-14T10:36:43.409Z,30.01
2018-09-14T10:40:07.857Z,30.70
2018-09-14T10:43:32.308Z,30.17
2018-09-14T10:46:56.710Z,29.54
2018-09-14T10:50:21.279Z,27.92
2018-09-14T10:53:45.696Z,29.02
2018-09-14T10:57:10.203Z,27.79
2018-09-14T11:00:35.020Z,26.31
2018-09-14T11:03:59.428Z,24.77
2018-09-14T11:07:23.844Z,23.82
2018-09-14T11:10:48.274Z,23.83
2018-09-14T11:14:13.050Z,23.40
2018-09-14T11:17:37.476Z,23.29
2018-09-14T11:21:01.889Z,26.14
2018-09-14T11:24:26.338Z,28.14
2018-09-14T11:27:50.772Z,30.36
2018-09-14T11:31:15.222Z,30.34
2018-09-14T11:34:39.682Z,31.59
2018-09-14T11:38:04.231Z,31.80
2018-09-14T11:41:28.612Z,32.02
2018-09-14T11:44:53.093Z,32.49
2018-09-14T11:48:17.523Z,32.14
2018-09-14T11:51:41.934Z,33.04
2018-09-14T11:55:06.389Z,32.34
2018-09-14T11:58:30.957Z,32.42
2018-09-14T12:01:55.392Z,31.40
2018-09-14T12:05:19.785Z,30.52
2018-09-14T12:08:44.239Z,31.81
2018-09-14T12:12:08.660Z,30.36
2018-09-14T12:15:33.130Z,32.71
2018-09-14T12:18:57.601Z,30.97
2018-09-14T12:22:22.099Z,27.45
2018-09-14T12:25:46.474Z,28.59
2018-09-14T12:29:10.897Z,30.54
2018-09-14T12:32:35.431Z,30.42
2018-09-14T12:35:59.873Z,29.02
2018-09-14T12:39:24.339Z,29.27
2018-09-14T12:42:48.781Z,29.20
2018-09-14T12:46:13.238Z,31.51
2018-09-14T12:49:37.728Z,32.09
2018-09-14T12:53:02.146Z,28.79
2018-09-14T12:56:26.589Z,30.20
2018-09-14T12:59:51.024Z,29.65
2018-09-14T13:03:15.462Z,30.41
2018-09-14T13:06:39.939Z,30.43
2018-09-14T13:10:04.454Z,30.40
2018-09-14T13:13:28.905Z,32.02
2018-09-14T13:16:53.483Z,31.61
2018-09-14T13:20:17.933Z,32.14
2018-09-14T13:23:42.432Z,35.54
2018-09-14T13:27:06.889Z,33.04
2018-09-14T13:30:31.837Z,32.73
2018-09-14T13:33:56.348Z,34.03
2018-09-14T13:37:21.109Z,35.07
2018-09-14T13:40:45.517Z,32.91
2018-09-14T13:44:09.891Z,32.39
2018-09-14T13:47:34.753Z,34.01
2018-09-14T13:50:59.203Z,35.88
2018-09-14T13:54:23.638Z,36.34
2018-09-14T13:57:48.923Z,36.11
2018-09-14T14:01:13.404Z,35.44
2018-09-14T14:04:37.880Z,35.82
2018-09-14T14:08:02.299Z,36.33
2018-09-14T14:11:26.735Z,36.97
2018-09-14T14:14:51.164Z,36.28
2018-09-14T14:22:27.492Z,34.29
2018-09-14T14:25:51.920Z,34.19
2018-09-14T14:29:16.348Z,33.55
2018-09-14T14:32:40.779Z,34.29
2018-09-14T14:36:05.253Z,34.53
2018-09-14T14:39:29.685Z,33.60
2018-09-14T14:42:54.076Z,34.70
2018-09-14T14:46:18.519Z,35.72
2018-09-14T14:49:42.944Z,34.23
2018-09-14T14:53:07.587Z,34.98
2018-09-14T14:56:32.004Z,33.44
2018-09-14T14:59:56.501Z,33.81
2018-09-14T15:03:20.943Z,33.22
2018-09-14T15:06:45.361Z,33.76
2018-09-14T15:10:09.794Z,35.03
2018-09-14T15:13:34.238Z,34.19
2018-09-14T15:16:58.650Z,33.63
2018-09-14T15:20:23.081Z,32.24
2018-09-14T15:23:47.529Z,32.63
2018-09-14T15:27:11.921Z,34.38
2018-09-14T15:30:36.478Z,33.13
2018-09-14T15:34:00.867Z,34.05
2018-09-14T15:37:25.867Z,33.23
2018-09-14T15:40:50.380Z,30.23
2018-09-14T15:44:14.959Z,28.24
2018-09-14T15:47:39.451Z,28.71
2018-09-14T15:51:04.024Z,27.54
2018-09-14T15:54:28.461Z,27.43
2018-09-14T15:57:53.100Z,26.85
2018-09-14T16:01:17.585Z,26.60
2018-09-14T16:04:42.074Z,26.19
2018-09-14T16:08:06.635Z,25.89
2018-09-14T16:11:31.037Z,26.64
2018-09-14T16:14:55.483Z,26.41
2018-09-14T16:18:19.904Z,26.52
2018-09-14T16:21:44.365Z,27.09
2018-09-14T16:25:09.217Z,27.74
2018-09-14T16:28:33.651Z,27.13
2018-09-14T16:31:58.098Z,27.23
2018-09-14T16:35:22.536Z,26.27
2018-09-14T16:38:46.975Z,26.50
2018-09-14T16:42:11.421Z,25.98
2018-09-14T16:45:35.922Z,25.63
2018-09-14T16:49:00.341Z,24.85
2018-09-14T16:52:24.809Z,25.42
2018-09-14T16:55:55.960Z,25.62
2018-09-14T16:59:20.354Z,24.80
2018-09-14T17:02:44.807Z,24.89
2018-09-14T17:06:09.196Z,24.68
2018-09-14T17:09:33.673Z,24.49
2018-09-14T17:12:58.094Z,24.33
2018-09-14T17:16:29.299Z,23.98
2018-09-14T17:19:53.761Z,23.69
2018-09-14T17:26:41.943Z,23.42
2018-09-14T17:30:06.778Z,23.22
2018-09-14T17:33:31.264Z,22.98
2018-09-14T17:36:55.714Z,22.74
2018-09-14T17:40:20.161Z,22.68
2018-09-14T17:43:44.563Z,22.17
2018-09-14T17:47:09.184Z,22.25
2018-09-14T17:50:33.673Z,22.27
2018-09-14T17:53:58.117Z,22.04
2018-09-14T17:57:22.676Z,21.82
2018-09-14T18:00:47.115Z,21.37
2018-09-14T18:04:11.875Z,21.17
2018-09-14T18:07:36.386Z,21.06
2018-09-14T18:11:01.115Z,20.83
2018-09-14T18:14:27.653Z,20.75
2018-09-14T18:17:52.191Z,20.46
2018-09-14T18:21:16.680Z,20.44
2018-09-14T18:24:41.106Z,20.06
2018-09-14T18:28:06.550Z,20.23
2018-09-14T18:31:31.103Z,19.79
2018-09-14T18:34:56.695Z,19.91
2018-09-14T18:38:21.209Z,19.88
2018-09-14T18:41:45.775Z,19.90
2018-09-14T18:45:10.538Z,19.76
2018-09-14T18:48:35.085Z,19.76
2018-09-14T18:51:59.933Z,20.05
2018-09-14T18:55:24.935Z,19.88
2018-09-14T18:58:49.872Z,20.05
2018-09-14T19:02:16.175Z,20.45
2018-09-14T19:05:41.918Z,20.36
2018-09-14T19:09:11.929Z,20.46
2018-09-14T19:12:37.414Z,20.23
2018-09-14T19:16:02.419Z,20.24
2018-09-14T19:19:27.701Z,20.18
2018-09-14T19:22:53.770Z,20.23
2018-09-14T19:26:19.844Z,19.84
2018-09-14T19:29:45.215Z,19.71
2018-09-14T19:33:10.740Z,19.74
2018-09-14T19:36:35.911Z,19.80
2018-09-14T19:40:00.937Z,19.78
2018-09-14T19:43:26.403Z,19.86
2018-09-14T19:46:52.660Z,19.53
2018-09-14T19:50:18.207Z,19.44
2018-09-14T19:53:44.240Z,19.31
2018-09-14T19:57:09.331Z,19.48
2018-09-14T20:00:34.292Z,19.38
2018-09-14T20:03:59.275Z,19.23
2018-09-14T20:07:24.378Z,19.20
2018-09-14T20:10:50.100Z,19.02
2018-09-14T20:14:15.713Z,18.85
2018-09-14T20:17:41.918Z,18.67
2018-09-14T20:21:06.698Z,18.65
2018-09-14T20:24:31.960Z,18.30
2018-09-14T20:27:57.317Z,18.30
2018-09-14T20:31:22.028Z,18.40
2018-09-14T20:34:47.229Z,18.62
2018-09-14T20:38:12.131Z,18.77
2018-09-14T20:41:37.561Z,18.87
2018-09-14T20:45:03.557Z,18.75
2018-09-14T20:48:29.601Z,18.86
2018-09-14T20:51:54.900Z,19.01
2018-09-14T20:55:20.483Z,19.16
2018-09-14T20:58:45.336Z,19.28
2018-09-14T21:02:09.949Z,19.36
2018-09-14T21:05:34.658Z,19.34
2018-09-14T21:08:59.179Z,19.61
2018-09-14T21:12:23.737Z,19.31
2018-09-14T21:15:48.134Z,19.12
2018-09-14T21:19:12.519Z,19.23
2018-09-14T21:22:38.043Z,19.28
2018-09-14T21:26:02.480Z,19.27
2018-09-14T21:29:26.885Z,19.22
2018-09-14T21:32:51.296Z,19.34
2018-09-14T21:36:15.739Z,19.19
2018-09-14T21:39:40.152Z,19.09
2018-09-14T21:43:04.561Z,18.75
2018-09-14T21:46:28.952Z,19.24
2018-09-14T21:49:53.392Z,19.15
2018-09-14T21:53:17.809Z,19.24
2018-09-14T21:56:42.239Z,19.17
2018-09-14T22:00:12.553Z,19.28
2018-09-14T22:03:36.973Z,19.40
2018-09-14T22:07:01.425Z,19.25
2018-09-14T22:10:25.834Z,19.06
2018-09-14T22:13:51.221Z,19.01
2018-09-14T22:17:15.661Z,18.86
2018-09-14T22:20:40.046Z,18.32
2018-09-14T22:24:04.459Z,18.29
2018-09-14T22:27:28.845Z,18.22
2018-09-14T22:30:53.247Z,17.93
2018-09-14T22:34:17.681Z,17.73
2018-09-14T22:37:42.115Z,17.70
2018-09-14T22:41:06.539Z,17.37
2018-09-14T22:44:31.008Z,17.34
2018-09-14T22:47:55.413Z,17.44
2018-09-14T22:51:19.871Z,17.21
2018-09-14T22:54:44.268Z,17.41
2018-09-14T22:58:08.744Z,17.05
2018-09-14T23:01:33.113Z,17.10
2018-09-14T23:04:57.538Z,16.87
2018-09-14T23:08:21.948Z,16.79
2018-09-14T23:11:46.423Z,16.71
2018-09-14T23:15:10.858Z,16.86
2018-09-14T23:18:35.345Z,17.07
2018-09-14T23:21:59.772Z,16.85
2018-09-14T23:25:24.159Z,16.74
2018-09-14T23:28:48.661Z,16.73
2018-09-14T23:32:13.039Z,16.50
2018-09-14T23:35:37.520Z,16.56
2018-09-14T23:39:01.889Z,16.50
2018-09-14T23:42:26.321Z,16.65
2018-09-14T23:45:50.728Z,16.53
2018-09-14T23:49:15.175Z,16.83
2018-09-14T23:52:39.616Z,17.03
2018-09-14T23:56:04.359Z,17.03
2018-09-14T23:59:28.798Z,17.12
